sensor_id;sensor_type;location;lat;lon;timestamp;temperature;humidity
22456;DHT22;11395;53.204;6.502;2023-08-08T00:02:25;23.60;83.00
22456;DHT22;11395;53.204;6.502;2023-08-08T00:04:52;23.60;83.30
22456;DHT22;11395;53.204;6.502;2023-08-08T00:07:18;23.60;83.00
22456;DHT22;11395;53.204;6.502;2023-08-08T00:09:44;23.60;83.30
22456;DHT22;11395;53.204;6.502;2023-08-08T00:12:11;23.50;83.40
22456;DHT22;11395;53.204;6.502;2023-08-08T00:14:37;23.50;83.30
22456;DHT22;11395;53.204;6.502;2023-08-08T00:17:03;23.60;83.30
22456;DHT22;11395;53.204;6.502;2023-08-08T00:19:29;23.50;83.50
22456;DHT22;11395;53.204;6.502;2023-08-08T00:21:56;23.50;83.30
22456;DHT22;11395;53.204;6.502;2023-08-08T00:24:22;23.40;83.30
22456;DHT22;11395;53.204;6.502;2023-08-08T00:26:48;23.40;83.70
22456;DHT22;11395;53.204;6.502;2023-08-08T00:29:14;23.40;83.60
22456;DHT22;11395;53.204;6.502;2023-08-08T00:31:41;23.40;83.70
22456;DHT22;11395;53.204;6.502;2023-08-08T00:34:07;23.40;83.90
22456;DHT22;11395;53.204;6.502;2023-08-08T00:36:33;23.30;83.90
22456;DHT22;11395;53.204;6.502;2023-08-08T00:38:59;23.40;84.20
22456;DHT22;11395;53.204;6.502;2023-08-08T00:41:25;23.30;84.20
22456;DHT22;11395;53.204;6.502;2023-08-08T00:43:52;23.30;84.60
22456;DHT22;11395;53.204;6.502;2023-08-08T00:46:23;23.30;84.50
22456;DHT22;11395;53.204;6.502;2023-08-08T00:48:51;23.20;86.00
22456;DHT22;11395;53.204;6.502;2023-08-08T00:51:18;23.20;85.70
22456;DHT22;11395;53.204;6.502;2023-08-08T00:53:46;23.20;85.30
22456;DHT22;11395;53.204;6.502;2023-08-08T00:56:14;23.10;84.90
22456;DHT22;11395;53.204;6.502;2023-08-08T00:58:42;23.10;85.00
22456;DHT22;11395;53.204;6.502;2023-08-08T01:01:12;23.10;85.40
22456;DHT22;11395;53.204;6.502;2023-08-08T01:03:38;23.10;85.60
22456;DHT22;11395;53.204;6.502;2023-08-08T01:06:37;23.00;84.90
22456;DHT22;11395;53.204;6.502;2023-08-08T01:09:36;23.10;85.90
22456;DHT22;11395;53.204;6.502;2023-08-08T01:12:04;23.10;85.90
22456;DHT22;11395;53.204;6.502;2023-08-08T01:14:32;23.00;85.60
22456;DHT22;11395;53.204;6.502;2023-08-08T01:16:59;23.00;85.80
22456;DHT22;11395;53.204;6.502;2023-08-08T01:19:30;23.10;85.90
22456;DHT22;11395;53.204;6.502;2023-08-08T01:22:01;23.00;87.00
22456;DHT22;11395;53.204;6.502;2023-08-08T01:24:31;22.90;86.70
22456;DHT22;11395;53.204;6.502;2023-08-08T01:27:00;22.90;85.70
22456;DHT22;11395;53.204;6.502;2023-08-08T01:29:27;23.00;86.30
22456;DHT22;11395;53.204;6.502;2023-08-08T01:31:54;22.90;86.20
22456;DHT22;11395;53.204;6.502;2023-08-08T01:34:21;22.90;86.10
22456;DHT22;11395;53.204;6.502;2023-08-08T01:36:57;22.90;85.70
22456;DHT22;11395;53.204;6.502;2023-08-08T01:39:27;22.90;87.50
22456;DHT22;11395;53.204;6.502;2023-08-08T01:41:56;22.90;86.60
22456;DHT22;11395;53.204;6.502;2023-08-08T01:44:23;22.90;85.90
22456;DHT22;11395;53.204;6.502;2023-08-08T01:46:55;22.80;85.90
22456;DHT22;11395;53.204;6.502;2023-08-08T01:49:22;22.80;88.10
22456;DHT22;11395;53.204;6.502;2023-08-08T01:51:49;22.80;85.90
22456;DHT22;11395;53.204;6.502;2023-08-08T01:54:16;22.80;85.80
22456;DHT22;11395;53.204;6.502;2023-08-08T01:56:42;22.80;85.80
22456;DHT22;11395;53.204;6.502;2023-08-08T01:59:08;22.80;85.90
22456;DHT22;11395;53.204;6.502;2023-08-08T02:01:35;22.80;85.80
22456;DHT22;11395;53.204;6.502;2023-08-08T02:04:02;22.80;85.80
22456;DHT22;11395;53.204;6.502;2023-08-08T02:06:28;22.80;86.10
22456;DHT22;11395;53.204;6.502;2023-08-08T02:08:54;22.70;86.00
22456;DHT22;11395;53.204;6.502;2023-08-08T02:11:20;22.80;85.90
22456;DHT22;11395;53.204;6.502;2023-08-08T02:13:49;22.70;85.90
22456;DHT22;11395;53.204;6.502;2023-08-08T02:16:15;22.70;85.90
22456;DHT22;11395;53.204;6.502;2023-08-08T02:18:41;22.70;86.10
22456;DHT22;11395;53.204;6.502;2023-08-08T02:21:08;22.70;85.90
22456;DHT22;11395;53.204;6.502;2023-08-08T02:23:34;22.70;86.40
22456;DHT22;11395;53.204;6.502;2023-08-08T02:26:00;22.70;86.10
22456;DHT22;11395;53.204;6.502;2023-08-08T02:28:27;22.70;86.60
22456;DHT22;11395;53.204;6.502;2023-08-08T02:30:53;22.70;86.20
22456;DHT22;11395;53.204;6.502;2023-08-08T02:33:19;22.70;86.50
22456;DHT22;11395;53.204;6.502;2023-08-08T02:35:45;22.60;85.90
22456;DHT22;11395;53.204;6.502;2023-08-08T02:38:13;22.60;86.50
22456;DHT22;11395;53.204;6.502;2023-08-08T02:40:40;22.60;86.20
22456;DHT22;11395;53.204;6.502;2023-08-08T02:43:07;22.60;86.50
22456;DHT22;11395;53.204;6.502;2023-08-08T02:45:35;22.60;86.20
22456;DHT22;11395;53.204;6.502;2023-08-08T02:48:01;22.60;86.10
22456;DHT22;11395;53.204;6.502;2023-08-08T02:50:27;22.60;86.20
22456;DHT22;11395;53.204;6.502;2023-08-08T02:52:54;22.60;86.40
22456;DHT22;11395;53.204;6.502;2023-08-08T02:55:23;22.60;86.50
22456;DHT22;11395;53.204;6.502;2023-08-08T02:57:51;22.50;86.50
22456;DHT22;11395;53.204;6.502;2023-08-08T03:00:17;22.60;86.30
22456;DHT22;11395;53.204;6.502;2023-08-08T03:02:47;22.50;86.50
22456;DHT22;11395;53.204;6.502;2023-08-08T03:05:15;22.50;86.50
22456;DHT22;11395;53.204;6.502;2023-08-08T03:07:41;22.50;86.50
22456;DHT22;11395;53.204;6.502;2023-08-08T03:10:08;22.50;86.40
22456;DHT22;11395;53.204;6.502;2023-08-08T03:12:35;22.50;86.50
22456;DHT22;11395;53.204;6.502;2023-08-08T03:15:04;22.50;86.60
22456;DHT22;11395;53.204;6.502;2023-08-08T03:17:30;22.50;86.80
22456;DHT22;11395;53.204;6.502;2023-08-08T03:19:57;22.50;86.70
22456;DHT22;11395;53.204;6.502;2023-08-08T03:22:24;22.40;86.60
22456;DHT22;11395;53.204;6.502;2023-08-08T03:24:51;22.40;86.70
22456;DHT22;11395;53.204;6.502;2023-08-08T03:27:17;22.40;86.70
22456;DHT22;11395;53.204;6.502;2023-08-08T03:29:45;22.40;86.70
22456;DHT22;11395;53.204;6.502;2023-08-08T03:32:11;22.40;86.60
22456;DHT22;11395;53.204;6.502;2023-08-08T03:34:37;22.40;86.50
22456;DHT22;11395;53.204;6.502;2023-08-08T03:37:04;22.40;86.80
22456;DHT22;11395;53.204;6.502;2023-08-08T03:39:31;22.40;86.90
22456;DHT22;11395;53.204;6.502;2023-08-08T03:41:57;22.40;86.60
22456;DHT22;11395;53.204;6.502;2023-08-08T03:44:23;22.40;86.80
22456;DHT22;11395;53.204;6.502;2023-08-08T03:46:49;22.30;86.80
22456;DHT22;11395;53.204;6.502;2023-08-08T03:49:17;22.30;86.70
22456;DHT22;11395;53.204;6.502;2023-08-08T03:51:43;22.40;87.20
22456;DHT22;11395;53.204;6.502;2023-08-08T03:54:10;22.30;87.20
22456;DHT22;11395;53.204;6.502;2023-08-08T03:56:36;22.30;86.90
22456;DHT22;11395;53.204;6.502;2023-08-08T03:59:02;22.30;87.00
22456;DHT22;11395;53.204;6.502;2023-08-08T04:01:28;22.30;87.20
22456;DHT22;11395;53.204;6.502;2023-08-08T04:03:55;22.30;87.20
22456;DHT22;11395;53.204;6.502;2023-08-08T04:06:21;22.20;87.10
22456;DHT22;11395;53.204;6.502;2023-08-08T04:08:48;22.30;87.20
22456;DHT22;11395;53.204;6.502;2023-08-08T04:11:14;22.20;87.10
22456;DHT22;11395;53.204;6.502;2023-08-08T04:13:40;22.30;86.80
22456;DHT22;11395;53.204;6.502;2023-08-08T04:16:07;22.40;86.60
22456;DHT22;11395;53.204;6.502;2023-08-08T04:18:33;22.40;86.30
22456;DHT22;11395;53.204;6.502;2023-08-08T04:20:59;22.50;86.30
22456;DHT22;11395;53.204;6.502;2023-08-08T04:23:25;22.60;86.10
22456;DHT22;11395;53.204;6.502;2023-08-08T04:25:52;22.70;86.00
22456;DHT22;11395;53.204;6.502;2023-08-08T04:28:19;22.80;86.30
22456;DHT22;11395;53.204;6.502;2023-08-08T04:30:45;23.50;85.90
22456;DHT22;11395;53.204;6.502;2023-08-08T04:33:11;23.00;85.30
22456;DHT22;11395;53.204;6.502;2023-08-08T04:35:37;23.20;85.00
22456;DHT22;11395;53.204;6.502;2023-08-08T04:38:04;23.30;84.60
22456;DHT22;11395;53.204;6.502;2023-08-08T04:40:30;23.40;84.40
22456;DHT22;11395;53.204;6.502;2023-08-08T04:42:56;23.50;84.20
22456;DHT22;11395;53.204;6.502;2023-08-08T04:45:22;23.60;83.80
22456;DHT22;11395;53.204;6.502;2023-08-08T04:47:48;23.70;83.50
22456;DHT22;11395;53.204;6.502;2023-08-08T04:50:15;23.80;83.50
22456;DHT22;11395;53.204;6.502;2023-08-08T04:52:41;23.90;83.30
22456;DHT22;11395;53.204;6.502;2023-08-08T04:55:07;23.90;82.60
22456;DHT22;11395;53.204;6.502;2023-08-08T04:57:33;24.60;84.40
22456;DHT22;11395;53.204;6.502;2023-08-08T04:59:59;24.10;83.30
22456;DHT22;11395;53.204;6.502;2023-08-08T05:02:30;24.30;83.20
22456;DHT22;11395;53.204;6.502;2023-08-08T05:04:57;24.20;83.20
22456;DHT22;11395;53.204;6.502;2023-08-08T05:07:23;24.20;82.50
22456;DHT22;11395;53.204;6.502;2023-08-08T05:09:49;24.20;82.50
22456;DHT22;11395;53.204;6.502;2023-08-08T05:12:15;24.20;82.80
22456;DHT22;11395;53.204;6.502;2023-08-08T05:14:41;24.60;81.70
22456;DHT22;11395;53.204;6.502;2023-08-08T05:17:07;24.30;82.10
22456;DHT22;11395;53.204;6.502;2023-08-08T05:19:33;24.30;82.30
22456;DHT22;11395;53.204;6.502;2023-08-08T05:21:59;24.60;83.40
22456;DHT22;11395;53.204;6.502;2023-08-08T05:24:26;24.60;82.30
22456;DHT22;11395;53.204;6.502;2023-08-08T05:26:53;24.60;83.30
22456;DHT22;11395;53.204;6.502;2023-08-08T05:29:19;24.40;82.10
22456;DHT22;11395;53.204;6.502;2023-08-08T05:31:46;24.40;82.70
22456;DHT22;11395;53.204;6.502;2023-08-08T05:34:13;24.40;82.50
22456;DHT22;11395;53.204;6.502;2023-08-08T05:36:40;24.40;81.60
22456;DHT22;11395;53.204;6.502;2023-08-08T05:39:07;24.40;81.80
22456;DHT22;11395;53.204;6.502;2023-08-08T05:41:35;24.40;82.70
22456;DHT22;11395;53.204;6.502;2023-08-08T05:44:01;24.70;82.30
22456;DHT22;11395;53.204;6.502;2023-08-08T05:46:27;24.40;81.70
22456;DHT22;11395;53.204;6.502;2023-08-08T05:48:54;24.60;81.60
22456;DHT22;11395;53.204;6.502;2023-08-08T05:51:20;24.40;81.90
22456;DHT22;11395;53.204;6.502;2023-08-08T05:53:46;25.00;82.20
22456;DHT22;11395;53.204;6.502;2023-08-08T05:56:13;24.40;81.30
22456;DHT22;11395;53.204;6.502;2023-08-08T05:58:39;24.40;80.80
22456;DHT22;11395;53.204;6.502;2023-08-08T06:01:05;24.40;81.20
22456;DHT22;11395;53.204;6.502;2023-08-08T06:03:37;24.40;79.90
22456;DHT22;11395;53.204;6.502;2023-08-08T06:06:04;24.40;81.30
22456;DHT22;11395;53.204;6.502;2023-08-08T06:08:30;24.70;82.20
22456;DHT22;11395;53.204;6.502;2023-08-08T06:10:58;24.50;80.90
22456;DHT22;11395;53.204;6.502;2023-08-08T06:13:24;24.50;81.80
22456;DHT22;11395;53.204;6.502;2023-08-08T06:15:50;24.40;80.80
22456;DHT22;11395;53.204;6.502;2023-08-08T06:18:17;24.60;80.90
22456;DHT22;11395;53.204;6.502;2023-08-08T06:20:43;24.60;80.90
22456;DHT22;11395;53.204;6.502;2023-08-08T06:23:10;24.70;81.00
22456;DHT22;11395;53.204;6.502;2023-08-08T06:25:36;24.80;80.20
22456;DHT22;11395;53.204;6.502;2023-08-08T06:28:04;24.90;80.70
22456;DHT22;11395;53.204;6.502;2023-08-08T06:30:32;24.90;79.90
22456;DHT22;11395;53.204;6.502;2023-08-08T06:32:58;25.00;79.50
22456;DHT22;11395;53.204;6.502;2023-08-08T06:35:24;25.40;79.80
22456;DHT22;11395;53.204;6.502;2023-08-08T06:37:50;25.20;79.70
22456;DHT22;11395;53.204;6.502;2023-08-08T06:40:17;25.30;79.40
22456;DHT22;11395;53.204;6.502;2023-08-08T06:42:43;25.40;79.30
22456;DHT22;11395;53.204;6.502;2023-08-08T06:45:09;25.50;78.70
22456;DHT22;11395;53.204;6.502;2023-08-08T06:47:35;25.60;78.40
22456;DHT22;11395;53.204;6.502;2023-08-08T06:50:03;25.60;78.00
22456;DHT22;11395;53.204;6.502;2023-08-08T06:52:29;26.20;78.30
22456;DHT22;11395;53.204;6.502;2023-08-08T06:54:55;25.80;79.10
22456;DHT22;11395;53.204;6.502;2023-08-08T06:57:22;25.80;78.10
22456;DHT22;11395;53.204;6.502;2023-08-08T06:59:48;26.50;79.00
22456;DHT22;11395;53.204;6.502;2023-08-08T07:02:17;26.10;77.70
22456;DHT22;11395;53.204;6.502;2023-08-08T07:04:44;26.00;77.40
22456;DHT22;11395;53.204;6.502;2023-08-08T07:07:10;25.90;77.40
22456;DHT22;11395;53.204;6.502;2023-08-08T07:09:36;26.00;77.90
22456;DHT22;11395;53.204;6.502;2023-08-08T07:12:04;26.00;77.20
22456;DHT22;11395;53.204;6.502;2023-08-08T07:14:30;25.90;77.90
22456;DHT22;11395;53.204;6.502;2023-08-08T07:16:56;25.90;77.80
22456;DHT22;11395;53.204;6.502;2023-08-08T07:19:22;26.10;77.30
22456;DHT22;11395;53.204;6.502;2023-08-08T07:21:49;25.90;77.00
22456;DHT22;11395;53.204;6.502;2023-08-08T07:24:16;25.80;77.10
22456;DHT22;11395;53.204;6.502;2023-08-08T07:26:42;25.80;77.80
22456;DHT22;11395;53.204;6.502;2023-08-08T07:29:09;25.80;77.10
22456;DHT22;11395;53.204;6.502;2023-08-08T07:31:35;25.80;76.70
22456;DHT22;11395;53.204;6.502;2023-08-08T07:34:01;26.10;77.40
22456;DHT22;11395;53.204;6.502;2023-08-08T07:36:27;25.90;77.10
22456;DHT22;11395;53.204;6.502;2023-08-08T07:38:53;25.90;76.80
22456;DHT22;11395;53.204;6.502;2023-08-08T07:41:29;25.90;76.70
22456;DHT22;11395;53.204;6.502;2023-08-08T07:43:56;25.90;77.50
22456;DHT22;11395;53.204;6.502;2023-08-08T07:46:22;26.00;75.70
22456;DHT22;11395;53.204;6.502;2023-08-08T07:48:49;26.10;76.00
22456;DHT22;11395;53.204;6.502;2023-08-08T07:51:15;26.10;75.40
22456;DHT22;11395;53.204;6.502;2023-08-08T07:53:41;26.00;75.60
22456;DHT22;11395;53.204;6.502;2023-08-08T07:56:07;26.00;75.50
22456;DHT22;11395;53.204;6.502;2023-08-08T07:58:33;25.90;75.70
22456;DHT22;11395;53.204;6.502;2023-08-08T08:01:00;25.80;76.80
22456;DHT22;11395;53.204;6.502;2023-08-08T08:03:26;25.80;75.80
22456;DHT22;11395;53.204;6.502;2023-08-08T08:05:53;25.80;76.70
22456;DHT22;11395;53.204;6.502;2023-08-08T08:08:19;25.80;76.80
22456;DHT22;11395;53.204;6.502;2023-08-08T08:10:47;25.70;76.50
22456;DHT22;11395;53.204;6.502;2023-08-08T08:13:14;25.70;76.70
22456;DHT22;11395;53.204;6.502;2023-08-08T08:15:40;25.70;76.90
22456;DHT22;11395;53.204;6.502;2023-08-08T08:18:07;25.60;76.50
22456;DHT22;11395;53.204;6.502;2023-08-08T08:20:33;25.60;76.40
22456;DHT22;11395;53.204;6.502;2023-08-08T08:23:00;25.60;76.50
22456;DHT22;11395;53.204;6.502;2023-08-08T08:25:26;25.60;76.80
22456;DHT22;11395;53.204;6.502;2023-08-08T08:27:52;25.50;76.60
22456;DHT22;11395;53.204;6.502;2023-08-08T08:30:18;25.40;76.90
22456;DHT22;11395;53.204;6.502;2023-08-08T08:32:45;25.30;77.10
22456;DHT22;11395;53.204;6.502;2023-08-08T08:35:11;25.40;77.40
22456;DHT22;11395;53.204;6.502;2023-08-08T08:37:39;25.50;77.40
22456;DHT22;11395;53.204;6.502;2023-08-08T08:40:05;25.50;77.20
22456;DHT22;11395;53.204;6.502;2023-08-08T08:42:32;25.50;76.50
22456;DHT22;11395;53.204;6.502;2023-08-08T08:45:01;25.40;77.40
22456;DHT22;11395;53.204;6.502;2023-08-08T08:47:30;25.40;77.90
22456;DHT22;11395;53.204;6.502;2023-08-08T08:49:58;26.00;77.10
22456;DHT22;11395;53.204;6.502;2023-08-08T08:52:27;26.70;74.10
22456;DHT22;11395;53.204;6.502;2023-08-08T08:54:53;27.20;71.60
22456;DHT22;11395;53.204;6.502;2023-08-08T08:57:23;27.30;71.80
22456;DHT22;11395;53.204;6.502;2023-08-08T08:59:52;27.00;72.80
22456;DHT22;11395;53.204;6.502;2023-08-08T09:02:18;26.70;73.40
22456;DHT22;11395;53.204;6.502;2023-08-08T09:04:45;26.70;74.20
22456;DHT22;11395;53.204;6.502;2023-08-08T09:07:12;26.60;74.10
22456;DHT22;11395;53.204;6.502;2023-08-08T09:09:43;26.50;74.00
22456;DHT22;11395;53.204;6.502;2023-08-08T09:12:09;26.20;75.50
22456;DHT22;11395;53.204;6.502;2023-08-08T09:14:40;26.10;75.00
22456;DHT22;11395;53.204;6.502;2023-08-08T09:17:13;26.00;76.50
22456;DHT22;11395;53.204;6.502;2023-08-08T09:19:43;26.00;75.60
22456;DHT22;11395;53.204;6.502;2023-08-08T09:22:11;26.00;76.90
22456;DHT22;11395;53.204;6.502;2023-08-08T09:24:42;26.30;74.90
22456;DHT22;11395;53.204;6.502;2023-08-08T09:27:09;26.40;75.60
22456;DHT22;11395;53.204;6.502;2023-08-08T09:29:36;26.60;74.70
22456;DHT22;11395;53.204;6.502;2023-08-08T09:32:03;26.60;75.00
22456;DHT22;11395;53.204;6.502;2023-08-08T09:34:30;26.50;74.90
22456;DHT22;11395;53.204;6.502;2023-08-08T09:36:57;26.50;74.90
22456;DHT22;11395;53.204;6.502;2023-08-08T09:39:23;26.40;74.60
22456;DHT22;11395;53.204;6.502;2023-08-08T09:41:50;26.30;74.90
22456;DHT22;11395;53.204;6.502;2023-08-08T09:44:16;26.20;75.90
22456;DHT22;11395;53.204;6.502;2023-08-08T09:46:43;26.10;75.90
22456;DHT22;11395;53.204;6.502;2023-08-08T09:49:12;26.00;76.00
22456;DHT22;11395;53.204;6.502;2023-08-08T09:51:39;26.20;77.20
22456;DHT22;11395;53.204;6.502;2023-08-08T09:54:06;25.80;77.20
22456;DHT22;11395;53.204;6.502;2023-08-08T09:56:34;25.70;76.40
22456;DHT22;11395;53.204;6.502;2023-08-08T09:59:01;25.70;76.80
22456;DHT22;11395;53.204;6.502;2023-08-08T10:01:27;25.50;76.70
22456;DHT22;11395;53.204;6.502;2023-08-08T10:03:54;25.40;76.40
22456;DHT22;11395;53.204;6.502;2023-08-08T10:06:21;25.40;77.00
22456;DHT22;11395;53.204;6.502;2023-08-08T10:08:47;25.50;78.00
22456;DHT22;11395;53.204;6.502;2023-08-08T10:11:14;25.20;78.10
22456;DHT22;11395;53.204;6.502;2023-08-08T10:13:48;25.20;78.20
22456;DHT22;11395;53.204;6.502;2023-08-08T10:16:18;25.20;79.00
22456;DHT22;11395;53.204;6.502;2023-08-08T10:18:46;25.20;78.60
22456;DHT22;11395;53.204;6.502;2023-08-08T10:21:20;25.30;77.90
22456;DHT22;11395;53.204;6.502;2023-08-08T10:23:48;25.20;77.30
22456;DHT22;11395;53.204;6.502;2023-08-08T10:26:19;25.30;77.30
22456;DHT22;11395;53.204;6.502;2023-08-08T10:28:56;25.30;78.80
22456;DHT22;11395;53.204;6.502;2023-08-08T10:31:23;25.30;79.20
22456;DHT22;11395;53.204;6.502;2023-08-08T10:33:49;25.10;77.40
22456;DHT22;11395;53.204;6.502;2023-08-08T10:36:15;25.10;77.90
22456;DHT22;11395;53.204;6.502;2023-08-08T10:41:14;25.10;78.70
22456;DHT22;11395;53.204;6.502;2023-08-08T10:43:49;25.00;77.40
22456;DHT22;11395;53.204;6.502;2023-08-08T10:46:32;24.90;80.00
22456;DHT22;11395;53.204;6.502;2023-08-08T10:49:00;24.90;78.90
22456;DHT22;11395;53.204;6.502;2023-08-08T10:51:49;24.90;79.30
22456;DHT22;11395;53.204;6.502;2023-08-08T10:54:27;24.90;80.90
22456;DHT22;11395;53.204;6.502;2023-08-08T10:56:57;24.80;80.30
22456;DHT22;11395;53.204;6.502;2023-08-08T10:59:27;24.90;79.80
22456;DHT22;11395;53.204;6.502;2023-08-08T11:01:55;24.90;81.20
22456;DHT22;11395;53.204;6.502;2023-08-08T11:04:23;24.90;79.20
22456;DHT22;11395;53.204;6.502;2023-08-08T11:06:50;24.90;80.00
22456;DHT22;11395;53.204;6.502;2023-08-08T11:09:18;24.90;79.60
22456;DHT22;11395;53.204;6.502;2023-08-08T11:11:45;24.90;79.10
22456;DHT22;11395;53.204;6.502;2023-08-08T11:14:14;24.90;80.50
22456;DHT22;11395;53.204;6.502;2023-08-08T11:16:41;24.90;80.00
22456;DHT22;11395;53.204;6.502;2023-08-08T11:19:08;24.90;79.80
22456;DHT22;11395;53.204;6.502;2023-08-08T11:21:36;25.00;79.60
22456;DHT22;11395;53.204;6.502;2023-08-08T11:24:06;25.10;80.10
22456;DHT22;11395;53.204;6.502;2023-08-08T11:26:36;25.10;80.70
22456;DHT22;11395;53.204;6.502;2023-08-08T11:29:04;25.10;80.60
22456;DHT22;11395;53.204;6.502;2023-08-08T11:31:33;25.20;79.80
22456;DHT22;11395;53.204;6.502;2023-08-08T11:33:59;25.30;79.60
22456;DHT22;11395;53.204;6.502;2023-08-08T11:36:30;25.20;79.40
22456;DHT22;11395;53.204;6.502;2023-08-08T11:38:57;25.20;78.30
22456;DHT22;11395;53.204;6.502;2023-08-08T11:41:24;25.20;79.20
22456;DHT22;11395;53.204;6.502;2023-08-08T11:43:52;25.30;79.10
22456;DHT22;11395;53.204;6.502;2023-08-08T11:46:23;25.30;79.30
22456;DHT22;11395;53.204;6.502;2023-08-08T11:48:49;25.40;80.30
22456;DHT22;11395;53.204;6.502;2023-08-08T11:51:15;25.30;79.00
22456;DHT22;11395;53.204;6.502;2023-08-08T11:53:50;25.30;79.60
22456;DHT22;11395;53.204;6.502;2023-08-08T11:56:19;25.30;80.70
22456;DHT22;11395;53.204;6.502;2023-08-08T11:58:46;25.30;79.80
22456;DHT22;11395;53.204;6.502;2023-08-08T12:01:13;25.40;79.40
22456;DHT22;11395;53.204;6.502;2023-08-08T12:03:40;25.40;79.10
22456;DHT22;11395;53.204;6.502;2023-08-08T12:06:14;25.40;79.40
22456;DHT22;11395;53.204;6.502;2023-08-08T12:08:42;25.40;81.00
22456;DHT22;11395;53.204;6.502;2023-08-08T12:11:09;25.40;79.80
22456;DHT22;11395;53.204;6.502;2023-08-08T12:13:37;25.40;79.40
22456;DHT22;11395;53.204;6.502;2023-08-08T12:16:09;25.40;80.20
22456;DHT22;11395;53.204;6.502;2023-08-08T12:18:37;25.70;80.90
22456;DHT22;11395;53.204;6.502;2023-08-08T12:21:08;25.40;79.70
22456;DHT22;11395;53.204;6.502;2023-08-08T12:23:35;25.40;80.00
22456;DHT22;11395;53.204;6.502;2023-08-08T12:26:06;25.30;79.80
22456;DHT22;11395;53.204;6.502;2023-08-08T12:28:33;25.30;80.40
22456;DHT22;11395;53.204;6.502;2023-08-08T12:31:01;25.40;79.70
22456;DHT22;11395;53.204;6.502;2023-08-08T12:33:27;25.40;80.00
22456;DHT22;11395;53.204;6.502;2023-08-08T12:35:53;25.40;79.60
22456;DHT22;11395;53.204;6.502;2023-08-08T12:38:20;25.40;79.30
22456;DHT22;11395;53.204;6.502;2023-08-08T12:40:46;25.30;79.00
22456;DHT22;11395;53.204;6.502;2023-08-08T12:43:12;25.30;79.20
22456;DHT22;11395;53.204;6.502;2023-08-08T12:45:40;25.30;79.20
22456;DHT22;11395;53.204;6.502;2023-08-08T12:48:06;25.30;79.90
22456;DHT22;11395;53.204;6.502;2023-08-08T12:50:32;25.20;79.60
22456;DHT22;11395;53.204;6.502;2023-08-08T12:52:58;25.20;79.70
22456;DHT22;11395;53.204;6.502;2023-08-08T12:55:25;25.30;79.70
22456;DHT22;11395;53.204;6.502;2023-08-08T12:57:51;25.30;79.60
22456;DHT22;11395;53.204;6.502;2023-08-08T13:00:17;25.30;79.60
22456;DHT22;11395;53.204;6.502;2023-08-08T13:02:43;25.40;79.30
22456;DHT22;11395;53.204;6.502;2023-08-08T13:05:10;25.40;79.80
22456;DHT22;11395;53.204;6.502;2023-08-08T13:07:36;25.40;79.30
22456;DHT22;11395;53.204;6.502;2023-08-08T13:10:02;25.50;80.30
22456;DHT22;11395;53.204;6.502;2023-08-08T13:12:28;25.50;79.30
22456;DHT22;11395;53.204;6.502;2023-08-08T13:14:54;25.40;79.50
22456;DHT22;11395;53.204;6.502;2023-08-08T13:17:21;25.50;79.60
22456;DHT22;11395;53.204;6.502;2023-08-08T13:19:47;25.50;79.40
22456;DHT22;11395;53.204;6.502;2023-08-08T13:22:13;25.50;79.40
22456;DHT22;11395;53.204;6.502;2023-08-08T13:24:39;25.50;79.70
22456;DHT22;11395;53.204;6.502;2023-08-08T13:27:05;25.60;79.60
22456;DHT22;11395;53.204;6.502;2023-08-08T13:29:31;25.50;79.10
22456;DHT22;11395;53.204;6.502;2023-08-08T13:31:58;25.50;79.00
22456;DHT22;11395;53.204;6.502;2023-08-08T13:34:24;25.50;79.10
22456;DHT22;11395;53.204;6.502;2023-08-08T13:36:50;25.50;79.00
22456;DHT22;11395;53.204;6.502;2023-08-08T13:39:16;25.40;79.00
22456;DHT22;11395;53.204;6.502;2023-08-08T13:41:42;25.40;79.20
22456;DHT22;11395;53.204;6.502;2023-08-08T13:44:09;25.40;79.20
22456;DHT22;11395;53.204;6.502;2023-08-08T13:46:35;25.40;79.30
22456;DHT22;11395;53.204;6.502;2023-08-08T13:49:01;25.40;80.20
22456;DHT22;11395;53.204;6.502;2023-08-08T13:51:27;25.40;79.50
22456;DHT22;11395;53.204;6.502;2023-08-08T13:53:53;25.50;79.20
22456;DHT22;11395;53.204;6.502;2023-08-08T13:56:20;25.40;79.60
22456;DHT22;11395;53.204;6.502;2023-08-08T13:58:46;25.50;79.50
22456;DHT22;11395;53.204;6.502;2023-08-08T14:01:12;25.50;79.00
22456;DHT22;11395;53.204;6.502;2023-08-08T14:03:39;25.50;79.40
22456;DHT22;11395;53.204;6.502;2023-08-08T14:06:05;25.50;79.40
22456;DHT22;11395;53.204;6.502;2023-08-08T14:08:32;25.50;79.30
22456;DHT22;11395;53.204;6.502;2023-08-08T14:10:58;25.50;79.10
22456;DHT22;11395;53.204;6.502;2023-08-08T14:13:24;25.60;79.30
22456;DHT22;11395;53.204;6.502;2023-08-08T14:15:50;25.60;79.00
22456;DHT22;11395;53.204;6.502;2023-08-08T14:18:18;25.60;79.30
22456;DHT22;11395;53.204;6.502;2023-08-08T14:20:44;25.60;79.40
22456;DHT22;11395;53.204;6.502;2023-08-08T14:23:10;25.60;78.90
22456;DHT22;11395;53.204;6.502;2023-08-08T14:25:37;25.50;79.00
22456;DHT22;11395;53.204;6.502;2023-08-08T14:28:03;25.50;78.70
22456;DHT22;11395;53.204;6.502;2023-08-08T14:30:30;25.50;78.80
22456;DHT22;11395;53.204;6.502;2023-08-08T14:32:56;25.40;79.60
22456;DHT22;11395;53.204;6.502;2023-08-08T14:35:22;25.40;79.10
22456;DHT22;11395;53.204;6.502;2023-08-08T14:37:49;25.40;79.00
22456;DHT22;11395;53.204;6.502;2023-08-08T14:40:15;25.30;79.20
22456;DHT22;11395;53.204;6.502;2023-08-08T14:42:41;25.30;79.40
22456;DHT22;11395;53.204;6.502;2023-08-08T14:45:07;25.30;79.60
22456;DHT22;11395;53.204;6.502;2023-08-08T14:47:34;25.20;80.10
22456;DHT22;11395;53.204;6.502;2023-08-08T14:50:00;25.20;79.70
22456;DHT22;11395;53.204;6.502;2023-08-08T14:52:26;25.30;80.50
22456;DHT22;11395;53.204;6.502;2023-08-08T14:54:52;25.30;79.50
22456;DHT22;11395;53.204;6.502;2023-08-08T14:57:18;25.30;79.70
22456;DHT22;11395;53.204;6.502;2023-08-08T14:59:44;25.40;80.00
22456;DHT22;11395;53.204;6.502;2023-08-08T15:02:11;25.40;80.10
22456;DHT22;11395;53.204;6.502;2023-08-08T15:04:37;25.40;80.00
22456;DHT22;11395;53.204;6.502;2023-08-08T15:07:03;25.40;80.00
22456;DHT22;11395;53.204;6.502;2023-08-08T15:09:29;25.40;80.40
22456;DHT22;11395;53.204;6.502;2023-08-08T15:11:55;25.40;80.40
22456;DHT22;11395;53.204;6.502;2023-08-08T15:14:21;25.50;80.80
22456;DHT22;11395;53.204;6.502;2023-08-08T15:16:54;25.40;80.70
22456;DHT22;11395;53.204;6.502;2023-08-08T15:19:20;25.40;82.80
22456;DHT22;11395;53.204;6.502;2023-08-08T15:21:46;25.40;81.20
22456;DHT22;11395;53.204;6.502;2023-08-08T15:24:12;25.40;81.10
22456;DHT22;11395;53.204;6.502;2023-08-08T15:26:38;25.30;81.70
22456;DHT22;11395;53.204;6.502;2023-08-08T15:29:04;25.40;81.60
22456;DHT22;11395;53.204;6.502;2023-08-08T15:31:31;25.50;81.20
22456;DHT22;11395;53.204;6.502;2023-08-08T15:33:59;24.60;81.20